Time;durP1;ratioP1;P1;durP2;ratioP2;P2;SDS_P1;SDS_P2;PMS_P1;PMS_P2;Temp;Humidity;BMP_temperature;BMP_pressure;BME280_temperature;BME280_humidity;BME280_pressure;Samples;Min_cycle;Max_cycle;Signal;HPM_P1;HPM_P2
2023/06/05 00:04:53;;;;;;;2.15;0.68;;;;;;;12.07;80.70;98737.03;15290290;19;20388;-41
2023/06/05 00:10:21;;;;;;;1.25;0.70;;;;;;;11.99;84.30;98732.47;15284759;19;20347;-40
2023/06/05 00:15:47;;;;;;;1.67;0.80;;;;;;;11.88;86.18;98733.56;15279703;19;20367;-47
2023/06/05 00:21:12;;;;;;;1.58;0.80;;;;;;;11.83;87.43;98730.50;15287889;19;20018;-45
2023/06/05 00:26:40;;;;;;;2.03;0.70;;;;;;;11.71;86.68;98733.47;15288865;19;20086;-44
2023/06/05 00:32:05;;;;;;;1.85;0.60;;;;;;;11.60;86.12;98731.06;15294269;19;20465;-48
2023/06/05 00:37:30;;;;;;;3.20;0.80;;;;;;;11.51;85.06;98732.03;15286671;19;20070;-42
2023/06/05 00:42:58;;;;;;;1.33;0.70;;;;;;;11.41;87.64;98732.13;15298122;19;20501;-41
2023/06/05 00:48:22;;;;;;;2.60;0.80;;;;;;;11.37;87.36;98723.50;15282412;19;20025;-40
2023/06/05 00:53:49;;;;;;;0.73;0.70;;;;;;;11.35;91.51;98725.50;15285000;19;20078;-44
2023/06/05 00:59:17;;;;;;;0.88;0.63;;;;;;;11.32;91.73;98733.94;15283587;19;20014;-43
2023/06/05 01:04:43;;;;;;;1.75;0.80;;;;;;;11.22;93.80;98725.94;15287581;19;20078;-45
2023/06/05 01:10:08;;;;;;;1.35;0.80;;;;;;;11.16;92.33;98726.59;15280605;19;20010;-44
2023/06/05 01:15:37;;;;;;;1.67;0.75;;;;;;;11.12;94.51;98721.66;15284428;19;20025;-44
2023/06/05 01:21:01;;;;;;;0.80;0.80;;;;;;;11.04;96.52;98714.38;15273089;19;20097;-42
2023/06/05 01:26:36;;;;;;;1.17;0.80;;;;;;;10.96;100.00;98717.84;15285343;19;20011;-41
2023/06/05 01:32:11;;;;;;;1.58;0.90;;;;;;;10.87;99.81;98711.53;15284601;19;20018;-42
2023/06/05 01:37:40;;;;;;;1.08;0.90;;;;;;;10.75;100.00;98710.94;15280698;19;20774;-45
2023/06/05 01:43:10;;;;;;;1.10;0.80;;;;;;;10.64;100.00;98716.56;15285963;19;20014;-41
2023/06/05 01:48:38;;;;;;;1.70;1.00;;;;;;;10.53;100.00;98714.09;15282110;19;20078;-43
2023/06/05 01:54:02;;;;;;;1.77;1.05;;;;;;;10.47;100.00;98707.47;15272838;19;20027;-40
2023/06/05 01:59:31;;;;;;;1.83;1.00;;;;;;;10.46;100.00;98708.50;15283944;19;20010;-42
2023/06/05 02:04:59;;;;;;;2.00;0.90;;;;;;;10.46;100.00;98698.53;15280903;19;20022;-43
2023/06/05 02:10:28;;;;;;;2.13;0.93;;;;;;;10.42;100.00;98699.84;15277523;19;20014;-41
2023/06/05 02:15:57;;;;;;;1.73;1.00;;;;;;;10.38;100.00;98698.47;15275124;19;20050;-41
2023/06/05 02:21:22;;;;;;;1.55;0.95;;;;;;;10.30;100.00;98695.66;15279629;19;20085;-41
2023/06/05 02:26:46;;;;;;;1.05;0.90;;;;;;;10.24;100.00;98696.28;15269550;19;20014;-41
2023/06/05 02:32:20;;;;;;;1.63;1.00;;;;;;;10.13;100.00;98700.88;15281609;19;20028;-42
2023/06/05 02:37:46;;;;;;;0.77;0.77;;;;;;;10.01;100.00;98694.84;15274559;19;20109;-42
2023/06/05 02:43:11;;;;;;;3.28;1.02;;;;;;;9.90;100.00;98699.59;15282465;19;20014;-41
2023/06/05 02:48:39;;;;;;;4.82;1.00;;;;;;;9.83;100.00;98691.28;15288533;19;20006;-42
2023/06/05 02:54:03;;;;;;;2.33;0.85;;;;;;;9.74;100.00;98700.25;15278729;19;20109;-41
2023/06/05 02:59:31;;;;;;;2.85;0.90;;;;;;;9.65;100.00;98696.59;15264214;19;20018;-41
2023/06/05 03:05:02;;;;;;;1.08;0.85;;;;;;;9.52;100.00;98694.28;15277083;19;20010;-43
2023/06/05 03:10:28;;;;;;;1.05;0.90;;;;;;;9.42;100.00;98697.00;15273547;19;20018;-42
2023/06/05 03:15:56;;;;;;;1.35;0.80;;;;;;;9.35;100.00;98702.09;15272954;19;20014;-42
2023/06/05 03:21:28;;;;;;;2.08;1.15;;;;;;;9.28;100.00;98710.91;15272609;19;20014;-42
2023/06/05 03:26:55;;;;;;;1.45;1.05;;;;;;;9.17;100.00;98707.38;15273335;19;20026;-42
2023/06/05 03:32:19;;;;;;;1.20;0.85;;;;;;;9.10;100.00;98715.19;15270802;19;20066;-43
2023/06/05 03:37:47;;;;;;;0.98;0.90;;;;;;;9.06;100.00;98719.13;15271036;19;20014;-46
2023/06/05 03:43:11;;;;;;;1.25;0.90;;;;;;;9.02;100.00;98708.81;15273954;19;20687;-46
2023/06/05 03:48:37;;;;;;;1.83;1.10;;;;;;;8.94;100.00;98714.91;15272778;19;20022;-48
2023/06/05 03:54:08;;;;;;;3.70;1.05;;;;;;;8.90;100.00;98719.72;15274675;19;20015;-45
2023/06/05 03:59:33;;;;;;;2.00;0.93;;;;;;;8.83;100.00;98724.00;15260735;19;20048;-45
2023/06/05 04:04:58;;;;;;;1.85;0.98;;;;;;;8.81;100.00;98722.44;15265599;19;20021;-45
2023/06/05 04:10:26;;;;;;;1.10;1.00;;;;;;;8.80;100.00;98718.91;15281007;19;20009;-46
2023/06/05 04:15:51;;;;;;;1.48;0.90;;;;;;;8.82;100.00;98721.47;15280858;19;20018;-45
2023/06/05 04:21:16;;;;;;;3.83;0.98;;;;;;;8.82;100.00;98727.66;15278375;19;20545;-46
2023/06/05 04:26:43;;;;;;;1.20;1.00;;;;;;;8.88;100.00;98723.56;15283308;19;20038;-46
2023/06/05 04:32:10;;;;;;;4.47;1.10;;;;;;;8.89;100.00;98722.56;15285644;19;20398;-46
2023/06/05 04:37:36;;;;;;;5.63;1.25;;;;;;;8.94;100.00;98723.84;15271741;19;20018;-47
2023/06/05 04:43:05;;;;;;;2.40;1.00;;;;;;;9.00;100.00;98729.63;15286389;19;20037;-46
2023/06/05 04:48:30;;;;;;;1.63;1.02;;;;;;;9.04;100.00;98725.66;15279140;19;20010;-47
2023/06/05 04:53:55;;;;;;;1.20;1.08;;;;;;;9.07;100.00;98725.38;15287946;19;20420;-48
2023/06/05 04:59:23;;;;;;;4.03;1.30;;;;;;;9.09;100.00;98713.47;15286124;19;20031;-53
2023/06/05 05:04:48;;;;;;;4.80;1.38;;;;;;;9.12;100.00;98715.03;15283639;19;20026;-52
2023/06/05 05:10:13;;;;;;;2.17;1.10;;;;;;;9.21;100.00;98718.69;15275874;19;20025;-50
2023/06/05 05:15:42;;;;;;;2.40;1.30;;;;;;;9.30;100.00;98722.34;15285291;19;20018;-48
2023/06/05 05:21:07;;;;;;;2.03;1.15;;;;;;;9.40;100.00;98715.97;15281440;19;20027;-50
2023/06/05 05:26:32;;;;;;;3.83;1.10;;;;;;;9.45;100.00;98717.34;15285460;19;20363;-47
2023/06/05 05:31:59;;;;;;;3.08;1.02;;;;;;;9.53;100.00;98712.06;15281935;19;20025;-46
2023/06/05 05:37:25;;;;;;;3.85;1.30;;;;;;;9.60;100.00;98717.72;15279698;19;20018;-48
2023/06/05 05:42:50;;;;;;;3.47;1.20;;;;;;;9.71;100.00;98722.91;15284050;19;20022;-48
2023/06/05 05:48:19;;;;;;;1.30;1.05;;;;;;;9.84;100.00;98728.78;15282396;19;20042;-46
2023/06/05 05:53:50;;;;;;;1.15;1.05;;;;;;;9.98;100.00;98732.00;15284527;19;20026;-47
2023/06/05 05:59:15;;;;;;;1.27;1.17;;;;;;;10.13;100.00;98737.72;15283549;19;20021;-47
2023/06/05 06:04:44;;;;;;;1.85;1.35;;;;;;;10.26;100.00;98737.38;15285580;19;20006;-46
2023/06/05 06:10:11;;;;;;;3.05;1.10;;;;;;;10.35;100.00;98739.16;15277800;19;20010;-49
2023/06/05 06:15:38;;;;;;;2.75;1.20;;;;;;;10.39;100.00;98745.97;15282471;19;20018;-47
2023/06/05 06:21:07;;;;;;;1.95;1.10;;;;;;;10.51;100.00;98751.97;15282880;19;20404;-48
2023/06/05 06:26:32;;;;;;;1.48;1.20;;;;;;;10.64;100.00;98743.53;15284255;19;20007;-49
2023/06/05 06:31:56;;;;;;;2.38;1.30;;;;;;;10.82;100.00;98750.72;15281220;19;20053;-48
2023/06/05 06:37:25;;;;;;;2.10;1.10;;;;;;;11.03;100.00;98756.66;15279932;19;20046;-45
2023/06/05 06:42:50;;;;;;;2.72;1.40;;;;;;;11.29;100.00;98750.44;15275051;19;20410;-45
2023/06/05 06:48:38;;;;;;;2.15;1.10;;;;;;;11.56;100.00;98752.13;15280648;19;20018;-51
2023/06/05 06:54:05;;;;;;;2.58;1.30;;;;;;;11.88;100.00;98755.16;15284093;19;20082;-47
2023/06/05 06:59:30;;;;;;;1.73;1.17;;;;;;;12.21;100.00;98755.31;15282203;19;20024;-49
2023/06/05 07:04:57;;;;;;;1.30;1.20;;;;;;;12.62;100.00;98747.34;15283754;19;20014;-46
2023/06/05 07:10:24;;;;;;;3.05;1.30;;;;;;;13.01;100.00;98747.69;15279835;19;20017;-51
2023/06/05 07:15:50;;;;;;;1.63;1.05;;;;;;;13.32;100.00;98747.84;15268193;19;20355;-47
2023/06/05 07:21:15;;;;;;;3.92;1.00;;;;;;;13.65;100.00;98746.97;15279008;19;20014;-48
2023/06/05 07:26:42;;;;;;;1.95;1.08;;;;;;;13.91;100.00;98745.88;15278699;19;20458;-45
2023/06/05 07:32:08;;;;;;;1.33;1.00;;;;;;;14.09;100.00;98746.47;15281259;19;20038;-52
2023/06/05 07:37:33;;;;;;;1.60;0.77;;;;;;;14.28;100.00;98747.09;15276711;19;20018;-48
2023/06/05 07:43:01;;;;;;;1.88;1.10;;;;;;;14.47;100.00;98745.78;15286628;19;20014;-50
2023/06/05 07:48:32;;;;;;;2.20;1.05;;;;;;;14.67;100.00;98750.75;15285109;19;20137;-47
2023/06/05 07:53:56;;;;;;;1.33;1.07;;;;;;;14.99;100.00;98751.56;15297561;19;20026;-50
2023/06/05 07:59:27;;;;;;;4.32;1.00;;;;;;;15.37;100.00;98749.69;15290741;19;20311;-49
2023/06/05 08:04:54;;;;;;;4.88;1.30;;;;;;;15.66;100.00;98750.78;15296190;19;20050;-51
2023/06/05 08:10:19;;;;;;;1.15;1.00;;;;;;;15.96;100.00;98748.09;15293049;19;20049;-53
2023/06/05 08:15:46;;;;;;;1.77;1.02;;;;;;;16.31;100.00;98740.16;15292598;19;20018;-52
2023/06/05 08:21:12;;;;;;;3.38;1.35;;;;;;;16.61;100.00;98741.97;15282761;19;20021;-46
2023/06/05 08:26:37;;;;;;;3.35;1.05;;;;;;;16.86;100.00;98734.28;15297982;19;20069;-51
2023/06/05 08:32:05;;;;;;;2.03;1.15;;;;;;;17.16;100.00;98726.00;15311404;19;20014;-50
2023/06/05 08:37:30;;;;;;;3.20;1.10;;;;;;;17.47;100.00;98727.47;15289194;19;20094;-46
2023/06/05 08:42:54;;;;;;;2.97;1.20;;;;;;;17.82;100.00;98727.50;15292962;19;20042;-49
2023/06/05 08:48:24;;;;;;;1.08;0.90;;;;;;;18.18;94.04;98721.00;15289314;19;20341;-51
2023/06/05 08:54:01;;;;;;;4.85;1.13;;;;;;;18.57;90.74;98712.31;15283353;19;20034;-47
2023/06/05 08:59:26;;;;;;;1.80;1.00;;;;;;;18.83;87.72;98713.41;15293861;19;20054;-50
2023/06/05 09:04:53;;;;;;;3.58;1.00;;;;;;;19.00;84.82;98706.53;15292071;19;20031;-51
2023/06/05 09:10:27;;;;;;;3.60;1.00;;;;;;;19.09;75.53;98708.03;15286140;19;20022;-47
2023/06/05 09:16:00;;;;;;;3.08;1.27;;;;;;;19.22;75.71;98714.53;15286399;19;20086;-48
2023/06/05 09:21:32;;;;;;;3.38;1.20;;;;;;;19.27;72.49;98709.25;15285760;19;20019;-45
2023/06/05 09:27:06;;;;;;;4.72;1.10;;;;;;;19.51;77.10;98704.19;15279956;19;20022;-46
2023/06/05 09:32:32;;;;;;;6.85;1.17;;;;;;;19.71;73.76;98701.44;15288535;19;20033;-48
2023/06/05 09:38:00;;;;;;;5.75;1.30;;;;;;;19.84;73.46;98695.06;15284742;19;20018;-52
2023/06/05 09:43:25;;;;;;;1.38;0.80;;;;;;;20.15;71.30;98686.16;15287976;19;20018;-50
2023/06/05 09:49:06;;;;;;;4.80;0.90;;;;;;;20.35;68.43;98689.88;15274421;19;20014;-42
2023/06/05 09:54:34;;;;;;;3.05;1.08;;;;;;;20.66;64.54;98677.25;15274624;19;20014;-44
2023/06/05 10:00:00;;;;;;;3.80;1.00;;;;;;;20.83;61.37;98672.97;15273877;19;20007;-45
2023/06/05 10:05:26;;;;;;;10.05;1.30;;;;;;;20.97;58.67;98676.44;15281600;19;20019;-42
2023/06/05 10:10:54;;;;;;;5.30;1.20;;;;;;;21.08;60.35;98670.22;15280765;19;20025;-43
2023/06/05 10:16:20;;;;;;;4.47;1.00;;;;;;;21.25;60.44;98672.41;15278381;19;20039;-43
2023/06/05 10:21:44;;;;;;;2.70;1.00;;;;;;;21.40;60.28;98661.91;15280149;19;20026;-43
2023/06/05 10:27:45;;;;;;;5.55;1.15;;;;;;;21.38;59.12;98666.81;15274625;19;20022;-44
2023/06/05 10:33:21;;;;;;;1.08;0.80;;;;;;;21.39;60.31;98654.78;15280624;19;20025;-43
2023/06/05 10:38:46;;;;;;;1.88;0.90;;;;;;;21.46;60.71;98651.94;15275447;19;20022;-44
2023/06/05 10:44:13;;;;;;;3.83;1.10;;;;;;;21.60;61.23;98646.34;15282794;19;20062;-42
2023/06/05 10:49:45;;;;;;;3.88;1.20;;;;;;;21.78;59.90;98651.00;15278048;19;20020;-44
2023/06/05 10:55:12;;;;;;;1.98;1.00;;;;;;;22.11;59.99;98639.63;15279821;19;20014;-43
2023/06/05 11:00:41;;;;;;;4.43;1.00;;;;;;;22.49;58.61;98637.66;15266599;19;20023;-43
2023/06/05 11:06:16;;;;;;;5.47;1.10;;;;;;;22.81;56.98;98644.78;15275984;19;20038;-46
2023/06/05 11:12:03;;;;;;;3.40;1.17;;;;;;;23.01;55.41;98638.97;15275518;19;20369;-44
2023/06/05 11:17:33;;;;;;;4.80;1.00;;;;;;;23.34;54.94;98643.88;15276524;19;20017;-44
2023/06/05 11:23:27;;;;;;;7.57;1.20;;;;;;;23.30;53.28;98637.22;15294226;19;20098;-44
2023/06/05 11:28:53;;;;;;;6.13;1.00;;;;;;;23.30;54.00;98631.72;15289217;19;20463;-43
2023/06/05 11:34:25;;;;;;;4.97;1.00;;;;;;;23.24;52.83;98641.75;15287451;19;20051;-44
2023/06/05 11:39:50;;;;;;;7.93;1.00;;;;;;;23.17;51.34;98629.19;15289200;19;20030;-44
2023/06/05 11:45:20;;;;;;;4.40;0.90;;;;;;;23.26;50.05;98624.19;15294565;19;20352;-44
2023/06/05 11:51:05;;;;;;;2.25;0.88;;;;;;;23.33;49.60;98609.25;15289223;19;20078;-43
2023/06/05 11:56:31;;;;;;;1.90;0.70;;;;;;;23.77;50.23;98599.72;15290601;19;20013;-43
2023/06/05 12:01:58;;;;;;;1.83;0.75;;;;;;;23.90;49.86;98595.84;15287136;19;20025;-43
2023/06/05 12:07:36;;;;;;;2.17;0.90;;;;;;;23.98;48.90;98595.50;15279181;19;20025;-44
2023/06/05 12:13:01;;;;;;;4.63;0.85;;;;;;;24.28;49.45;98591.66;15290953;19;20025;-43
2023/06/05 12:18:33;;;;;;;2.45;0.75;;;;;;;24.20;48.53;98587.38;15284236;19;20022;-45
2023/06/05 12:24:10;;;;;;;3.15;1.10;;;;;;;24.18;49.00;98584.03;15293485;19;20018;-45
2023/06/05 12:29:38;;;;;;;3.95;0.90;;;;;;;24.43;49.00;98591.94;15286125;19;20053;-44
2023/06/05 12:35:03;;;;;;;5.50;1.30;;;;;;;24.68;49.52;98578.84;15292797;19;20011;-47
2023/06/05 12:40:30;;;;;;;3.63;1.13;;;;;;;25.05;48.33;98575.63;15272705;19;20028;-47
2023/06/05 12:45:57;;;;;;;4.97;0.90;;;;;;;25.32;47.89;98561.94;14779185;19;10000739;-47
2023/06/05 12:51:28;;;;;;;4.45;1.17;;;;;;;25.59;45.84;98560.38;15284626;19;20014;-49
2023/06/05 12:56:57;;;;;;;5.28;0.90;;;;;;;25.69;44.87;98555.00;15286468;19;20014;-47
2023/06/05 13:02:22;;;;;;;2.25;0.90;;;;;;;25.95;47.33;98555.28;15283530;19;20010;-47
2023/06/05 13:07:47;;;;;;;1.13;0.90;;;;;;;26.05;46.46;98544.34;15286367;19;20341;-41
2023/06/05 13:13:16;;;;;;;1.90;1.05;;;;;;;26.45;46.46;98534.03;15281917;19;20345;-41
2023/06/05 13:18:41;;;;;;;2.35;0.98;;;;;;;26.85;45.48;98529.09;15284169;19;20010;-40
2023/06/05 13:24:05;;;;;;;2.20;1.00;;;;;;;26.27;45.02;98526.94;15286774;19;20035;-41
2023/06/05 13:29:39;;;;;;;3.65;1.20;;;;;;;26.02;45.56;98528.34;15282583;19;20023;-41
2023/06/05 13:35:05;;;;;;;2.15;1.10;;;;;;;25.81;46.13;98519.81;15285233;19;20022;-44
2023/06/05 13:40:32;;;;;;;2.40;0.95;;;;;;;25.54;47.09;98517.88;15272848;19;20382;-42
2023/06/05 13:45:59;;;;;;;2.95;0.90;;;;;;;25.50;46.58;98519.47;15276883;19;20018;-41
2023/06/05 13:51:25;;;;;;;1.98;0.80;;;;;;;25.81;46.69;98505.19;15281111;19;20029;-42
2023/06/05 13:56:51;;;;;;;3.85;0.88;;;;;;;25.92;46.24;98503.38;15281640;19;20425;-42
2023/06/05 14:02:20;;;;;;;3.13;1.00;;;;;;;25.69;46.37;98499.84;15280264;19;20018;-41
2023/06/05 14:07:45;;;;;;;1.33;0.90;;;;;;;25.57;45.87;98497.19;15279582;19;20014;-41
2023/06/05 14:13:09;;;;;;;2.80;1.02;;;;;;;26.20;46.05;98490.41;15277685;19;20462;-41
2023/06/05 14:18:36;;;;;;;6.68;1.17;;;;;;;26.07;46.18;98492.47;15277402;19;20347;-43
2023/06/05 14:24:04;;;;;;;2.28;0.90;;;;;;;25.75;46.78;98490.50;15283018;19;20021;-47
2023/06/05 14:29:46;;;;;;;2.00;1.00;;;;;;;25.47;47.19;98491.56;15285878;19;20015;-45
2023/06/05 14:35:29;;;;;;;2.63;0.90;;;;;;;25.44;48.20;98484.66;15284625;19;20040;-43
2023/06/05 14:41:17;;;;;;;4.22;1.05;;;;;;;26.12;47.34;98477.91;15271958;19;20466;-42
2023/06/05 14:46:55;;;;;;;2.40;0.90;;;;;;;26.77;45.56;98481.47;15267725;19;20351;-44
2023/06/05 14:52:38;;;;;;;1.20;0.85;;;;;;;26.55;44.89;98478.00;15273135;19;20471;-43
2023/06/05 14:58:55;;;;;;;5.60;1.02;;;;;;;26.37;44.37;98473.72;15275805;19;20030;-42
2023/06/05 15:04:48;;;;;;;2.47;0.90;;;;;;;26.20;45.99;98473.84;15276577;19;20022;-42
2023/06/05 15:10:44;;;;;;;1.75;0.90;;;;;;;26.81;44.73;98462.47;15274100;19;20499;-45
2023/06/05 15:16:39;;;;;;;4.20;0.95;;;;;;;26.81;44.85;98464.38;15277540;19;20034;-41
2023/06/05 15:22:19;;;;;;;2.08;0.85;;;;;;;26.26;44.35;98468.09;15265955;19;20018;-41
2023/06/05 15:28:42;;;;;;;2.70;1.10;;;;;;;25.90;44.98;98470.50;15273220;19;20082;-42
2023/06/05 15:34:31;;;;;;;3.50;0.90;;;;;;;25.52;46.30;98464.88;15279104;19;20860;-44
2023/06/05 15:40:19;;;;;;;2.78;0.98;;;;;;;25.35;46.17;98462.16;15273585;19;20018;-47
2023/06/05 15:46:04;;;;;;;2.13;1.00;;;;;;;25.65;45.83;98455.34;15274196;19;20014;-47
2023/06/05 15:51:47;;;;;;;3.22;0.90;;;;;;;26.46;44.37;98453.63;15248824;19;20062;-53
2023/06/05 15:57:12;;;;;;;5.72;0.93;;;;;;;26.74;43.13;98443.31;15273987;19;20018;-56
2023/06/05 16:02:39;;;;;;;2.22;1.00;;;;;;;26.86;42.61;98443.13;15273601;19;20019;-53
2023/06/05 16:08:04;;;;;;;1.10;0.82;;;;;;;26.77;41.91;98441.94;15291964;19;20031;-51
2023/06/05 16:13:28;;;;;;;1.95;0.80;;;;;;;26.35;42.36;98443.59;15292160;19;20403;-55
2023/06/05 16:18:59;;;;;;;9.65;1.10;;;;;;;26.20;41.82;98441.56;15287652;19;20029;-54
2023/06/05 16:24:23;;;;;;;4.20;1.02;;;;;;;26.39;41.24;98441.13;15280444;19;20026;-53
2023/06/05 16:29:48;;;;;;;2.38;0.80;;;;;;;26.48;42.07;98438.72;15287166;19;20014;-47
2023/06/05 16:35:18;;;;;;;1.83;0.90;;;;;;;26.60;41.75;98440.19;15288590;19;20451;-54
2023/06/05 16:40:43;;;;;;;3.25;0.70;;;;;;;26.90;40.95;98446.19;15285698;19;20075;-52
2023/06/05 16:46:07;;;;;;;1.88;0.95;;;;;;;26.65;42.05;98438.56;15288313;19;20419;-52
2023/06/05 16:51:41;;;;;;;1.85;0.80;;;;;;;26.77;42.29;98439.19;15285168;19;20053;-51
2023/06/05 16:57:07;;;;;;;2.55;0.98;;;;;;;26.94;41.04;98436.28;15275944;19;20048;-51
2023/06/05 17:02:31;;;;;;;1.23;0.88;;;;;;;27.06;41.03;98445.19;15281305;19;20104;-54
2023/06/05 17:07:58;;;;;;;2.83;0.80;;;;;;;26.65;40.71;98444.91;15280366;19;20018;-48
2023/06/05 17:13:24;;;;;;;3.95;0.80;;;;;;;26.25;41.18;98438.00;15283044;19;20082;-52
2023/06/05 17:18:49;;;;;;;1.85;0.90;;;;;;;25.93;41.68;98430.53;15280978;19;20011;-56
2023/06/05 17:24:16;;;;;;;1.67;0.90;;;;;;;25.73;41.35;98429.22;15284490;19;20024;-54
2023/06/05 17:29:41;;;;;;;4.60;0.90;;;;;;;25.56;42.48;98423.00;15269729;19;20025;-48
2023/06/05 17:35:05;;;;;;;1.30;0.80;;;;;;;25.35;42.86;98428.22;15285651;19;20022;-51
2023/06/05 17:40:32;;;;;;;2.30;0.80;;;;;;;25.20;42.86;98424.22;15280652;19;20011;-55
2023/06/05 17:45:57;;;;;;;1.42;0.90;;;;;;;24.86;43.36;98427.09;15283737;19;20856;-60
2023/06/05 17:51:28;;;;;;;2.80;0.82;;;;;;;24.52;43.31;98427.09;15258106;19;20015;-57
2023/06/05 17:56:55;;;;;;;;;;;;;;;24.14;44.47;98414.97;15281613;19;20347;-50
2023/06/05 18:02:20;;;;;;;2.15;1.00;;;;;;;23.85;44.23;98428.75;15270356;19;19925;-54
2023/06/05 18:07:45;;;;;;;3.05;0.90;;;;;;;23.64;44.55;98422.03;15281012;19;20011;-51
2023/06/05 18:13:12;;;;;;;1.23;0.80;;;;;;;23.49;44.61;98422.59;15276154;19;20019;-49
2023/06/05 18:18:37;;;;;;;1.73;0.80;;;;;;;23.36;45.16;98421.81;15280475;19;20366;-56
2023/06/05 18:24:02;;;;;;;2.80;0.90;;;;;;;23.26;44.91;98426.28;15281777;19;20015;-52
2023/06/05 18:29:30;;;;;;;2.50;0.90;;;;;;;23.11;45.05;98426.78;15279199;19;20019;-53
2023/06/05 18:34:54;;;;;;;1.55;0.90;;;;;;;22.88;45.56;98425.75;15271647;19;20142;-53
2023/06/05 18:40:19;;;;;;;1.27;1.00;;;;;;;22.72;45.63;98416.34;15276868;19;20715;-55
2023/06/05 18:45:46;;;;;;;1.02;0.90;;;;;;;22.51;46.08;98429.59;15279632;19;20483;-48
2023/06/05 18:51:11;;;;;;;2.47;0.90;;;;;;;22.27;46.20;98436.97;15278183;19;20021;-52
2023/06/05 18:56:35;;;;;;;2.55;1.10;;;;;;;22.11;46.83;98433.03;15278735;19;20078;-53
2023/06/05 19:02:03;;;;;;;2.90;1.00;;;;;;;21.91;47.07;98430.59;15272245;19;20018;-58
2023/06/05 19:07:27;;;;;;;1.58;1.00;;;;;;;21.69;47.20;98426.47;15265781;19;20038;-57
2023/06/05 19:12:52;;;;;;;5.18;1.30;;;;;;;21.51;47.97;98438.31;15277183;19;20010;-54
2023/06/05 19:18:19;;;;;;;1.65;1.08;;;;;;;21.34;48.14;98440.03;15281666;19;20022;-56
2023/06/05 19:23:44;;;;;;;1.92;1.00;;;;;;;21.12;49.99;98454.19;15279935;19;20017;-59
2023/06/05 19:29:08;;;;;;;1.50;0.93;;;;;;;20.94;50.63;98463.25;15275284;19;20015;-52
2023/06/05 19:34:37;;;;;;;1.52;1.00;;;;;;;20.63;52.48;98465.03;15275900;19;20037;-53
2023/06/05 19:40:02;;;;;;;4.35;1.00;;;;;;;20.30;52.92;98464.25;15272878;19;20022;-52
2023/06/05 19:45:27;;;;;;;2.15;1.10;;;;;;;20.04;54.05;98464.50;15296496;19;20061;-58
2023/06/05 19:50:54;;;;;;;1.48;1.17;;;;;;;19.87;54.57;98475.97;15291572;19;20018;-52
2023/06/05 19:56:20;;;;;;;2.53;1.23;;;;;;;19.76;55.85;98479.38;15292834;19;20352;-50
2023/06/05 20:01:52;;;;;;;2.40;1.13;;;;;;;19.67;56.71;98476.03;15288368;19;20098;-55
2023/06/05 20:07:22;;;;;;;3.45;1.20;;;;;;;19.58;57.64;98475.47;15286647;19;20050;-52
2023/06/05 20:12:46;;;;;;;3.80;1.20;;;;;;;19.47;59.39;98470.69;15281915;19;20352;-53
2023/06/05 20:18:11;;;;;;;1.77;1.15;;;;;;;19.40;61.05;98473.47;15289894;19;20022;-54
2023/06/05 20:23:38;;;;;;;3.05;1.15;;;;;;;19.27;63.12;98470.81;15290762;19;20027;-53
2023/06/05 20:29:03;;;;;;;1.60;1.20;;;;;;;19.17;65.35;98476.72;15288120;19;20016;-55
2023/06/05 20:34:28;;;;;;;1.60;1.20;;;;;;;19.07;66.34;98472.56;15291180;19;20018;-55
2023/06/05 20:39:57;;;;;;;2.58;1.10;;;;;;;18.99;69.44;98483.72;15282673;19;20017;-51
2023/06/05 20:45:27;;;;;;;2.45;1.08;;;;;;;18.88;71.33;98481.59;15288197;19;20014;-50
2023/06/05 20:51:00;;;;;;;2.47;1.30;;;;;;;18.76;76.44;98493.16;15286820;19;20017;-52
2023/06/05 20:56:31;;;;;;;3.10;1.20;;;;;;;18.62;80.50;98481.44;15286928;19;20037;-54
2023/06/05 21:01:57;;;;;;;1.88;1.20;;;;;;;18.51;80.02;98482.09;15282480;19;20023;-53
2023/06/05 21:07:22;;;;;;;1.90;1.30;;;;;;;18.43;83.07;98488.59;15285923;19;20751;-57
2023/06/05 21:12:49;;;;;;;1.98;1.30;;;;;;;18.27;87.31;98483.56;15273357;19;20526;-53
2023/06/05 21:18:14;;;;;;;2.33;1.30;;;;;;;18.10;88.63;98494.06;15286868;19;21148;-53
2023/06/05 21:23:39;;;;;;;3.78;1.40;;;;;;;17.69;96.78;98485.78;15283421;19;20097;-53
2023/06/05 21:29:06;;;;;;;1.85;1.40;;;;;;;17.42;100.00;98490.31;15281217;19;20028;-52
2023/06/05 21:34:32;;;;;;;1.73;1.27;;;;;;;17.23;100.00;98495.44;15286971;19;20614;-49
2023/06/05 21:39:57;;;;;;;2.92;1.30;;;;;;;17.12;100.00;98498.75;15282356;19;20489;-53
2023/06/05 21:45:25;;;;;;;1.45;1.20;;;;;;;17.02;100.00;98495.56;15272548;19;20011;-54
2023/06/05 21:50:57;;;;;;;3.00;1.50;;;;;;;16.91;100.00;98502.38;15283657;19;20066;-55
2023/06/05 21:56:22;;;;;;;2.30;1.60;;;;;;;16.80;100.00;98498.34;15284146;19;20019;-55
2023/06/05 22:01:49;;;;;;;1.40;1.30;;;;;;;16.72;100.00;98495.78;15277584;19;20485;-54
2023/06/05 22:07:16;;;;;;;1.77;1.40;;;;;;;16.65;100.00;98493.03;15277557;19;20022;-55
2023/06/05 22:12:43;;;;;;;2.53;1.52;;;;;;;16.57;100.00;98493.19;15276919;19;20015;-59
2023/06/05 22:18:20;;;;;;;3.13;1.40;;;;;;;16.48;100.00;98492.47;15272102;19;20085;-53
2023/06/05 22:23:44;;;;;;;2.92;1.42;;;;;;;16.45;100.00;98490.16;15276139;19;20410;-58
2023/06/05 22:29:10;;;;;;;3.22;1.45;;;;;;;16.44;100.00;98493.91;15277633;19;20481;-56
2023/06/05 22:34:39;;;;;;;2.75;1.30;;;;;;;16.43;100.00;98493.06;15288292;19;20016;-54
2023/06/05 22:40:04;;;;;;;3.65;1.23;;;;;;;16.43;100.00;98492.22;15278778;19;20025;-59
2023/06/05 22:45:30;;;;;;;2.13;1.40;;;;;;;16.37;100.00;98501.19;15280958;19;20020;-53
2023/06/05 22:50:58;;;;;;;2.42;1.42;;;;;;;16.27;100.00;98496.06;15269131;19;20021;-50
2023/06/05 22:56:24;;;;;;;2.17;1.35;;;;;;;16.22;100.00;98491.22;15274828;19;20928;-54
2023/06/05 23:01:49;;;;;;;2.25;1.40;;;;;;;16.18;100.00;98487.22;15277230;19;20018;-52
2023/06/05 23:07:17;;;;;;;1.40;1.30;;;;;;;16.16;100.00;98494.75;15278462;19;20391;-59
2023/06/05 23:12:43;;;;;;;2.28;1.52;;;;;;;16.14;100.00;98496.81;15278078;19;20032;-56
2023/06/05 23:18:08;;;;;;;2.22;1.40;;;;;;;16.07;100.00;98491.31;15280082;19;20014;-54
2023/06/05 23:23:36;;;;;;;2.47;1.50;;;;;;;15.98;100.00;98496.03;15263331;19;20010;-50
2023/06/05 23:29:00;;;;;;;1.98;1.45;;;;;;;15.70;100.00;98502.19;15277941;19;20078;-52
2023/06/05 23:34:25;;;;;;;2.05;1.60;;;;;;;15.45;100.00;98514.47;15278626;19;20015;-56
2023/06/05 23:39:52;;;;;;;1.65;1.55;;;;;;;15.31;100.00;98511.56;15274396;19;20021;-49
2023/06/05 23:45:18;;;;;;;2.03;1.52;;;;;;;15.07;100.00;98513.56;15279147;19;21356;-51
2023/06/05 23:50:43;;;;;;;2.90;1.58;;;;;;;14.92;100.00;98518.16;15274491;19;20018;-48
2023/06/05 23:56:11;;;;;;;3.03;1.30;;;;;;;14.83;100.00;98517.38;15264298;19;20082;-48
